Time;durP1;ratioP1;P1;durP2;ratioP2;P2;SDS_P1;SDS_P2;PMS_P1;PMS_P2;Temp;Humidity;BMP_temperature;BMP_pressure;BME280_temperature;BME280_humidity;BME280_pressure;Samples;Min_cycle;Max_cycle;Signal;HPM_P1;HPM_P2
2021/03/31 00:01:01;;;;;;;;;;;7.90;99.90;;;;;;10378266;28;19921;-79
2021/03/31 00:06:03;;;;;;;;;;;7.80;99.90;;;;;;10393559;28;19929;-79
2021/03/31 00:11:05;;;;;;;;;;;7.80;99.90;;;;;;10377729;28;20264;-79
2021/03/31 00:16:06;;;;;;;;;;;7.60;99.90;;;;;;10377788;28;19971;-79
2021/03/31 00:21:07;;;;;;;;;;;7.60;99.90;;;;;;10377633;28;19983;-79
2021/03/31 00:26:09;;;;;;;;;;;7.50;99.90;;;;;;10363782;28;19926;-79
2021/03/31 00:31:10;;;;;;;;;;;7.40;99.90;;;;;;10352992;28;19972;-79
2021/03/31 00:36:12;;;;;;;;;;;7.40;99.90;;;;;;10364514;28;19972;-79
2021/03/31 00:41:13;;;;;;;;;;;7.30;99.90;;;;;;10392313;28;20370;-79
2021/03/31 00:46:14;;;;;;;;;;;7.30;99.90;;;;;;10377559;28;19975;-79
2021/03/31 00:51:16;;;;;;;;;;;7.20;99.90;;;;;;10376404;28;19971;-79
2021/03/31 00:56:17;;;;;;;;;;;7.10;99.90;;;;;;10386206;28;19956;-79
2021/03/31 01:01:18;;;;;;;;;;;7.10;99.90;;;;;;10353714;28;19957;-79
2021/03/31 01:06:20;;;;;;;;;;;6.90;99.90;;;;;;10371183;28;19932;-79
2021/03/31 01:11:31;;;;;;;;;;;6.90;99.90;;;;;;10371261;28;20354;-79
2021/03/31 01:16:53;;;;;;;;;;;6.80;99.90;;;;;;10352619;28;20394;-79
2021/03/31 01:21:57;;;;;;;;;;;6.80;99.90;;;;;;10370368;28;19933;-79
2021/03/31 01:27:00;;;;;;;;;;;6.70;99.90;;;;;;10370092;28;19933;-79
2021/03/31 01:32:01;;;;;;;;;;;6.70;99.90;;;;;;10369652;28;19925;-79
2021/03/31 01:37:09;;;;;;;;;;;6.60;99.90;;;;;;10384382;28;19925;-79
2021/03/31 01:42:11;;;;;;;;;;;6.40;99.90;;;;;;10369060;28;19995;-79
2021/03/31 01:47:14;;;;;;;;;;;6.40;99.90;;;;;;10368750;28;20547;-79
2021/03/31 01:52:16;;;;;;;;;;;6.30;99.90;;;;;;10368381;28;19972;-79
2021/03/31 01:57:21;;;;;;;;;;;6.30;99.90;;;;;;10368130;28;19921;-79
2021/03/31 02:02:23;;;;;;;;;;;6.20;99.90;;;;;;10371270;28;20283;-79
2021/03/31 02:07:24;;;;;;;;;;;6.20;99.90;;;;;;10375530;28;19928;-79
2021/03/31 02:12:27;;;;;;;;;;;6.10;99.90;;;;;;10375191;28;19922;-79
2021/03/31 02:17:28;;;;;;;;;;;6.00;99.90;;;;;;10357862;28;20013;-79
2021/03/31 02:22:30;;;;;;;;;;;6.00;99.90;;;;;;10374958;28;20371;-79
2021/03/31 02:27:32;;;;;;;;;;;5.90;99.90;;;;;;10363453;28;19921;-79
2021/03/31 02:32:34;;;;;;;;;;;5.80;99.90;;;;;;10357257;28;19921;-79
2021/03/31 02:37:37;;;;;;;;;;;5.80;99.90;;;;;;10357357;28;19921;-79
2021/03/31 02:42:40;;;;;;;;;;;5.80;99.90;;;;;;10389346;28;19921;-79
2021/03/31 02:47:42;;;;;;;;;;;5.80;99.90;;;;;;10356724;28;20017;-79
2021/03/31 02:52:45;;;;;;;;;;;5.70;99.90;;;;;;10374047;28;20438;-79
2021/03/31 02:57:47;;;;;;;;;;;5.50;99.90;;;;;;10356736;28;19945;-79
2021/03/31 03:02:49;;;;;;;;;;;5.50;99.90;;;;;;10371803;28;20437;-79
2021/03/31 03:07:50;;;;;;;;;;;5.50;99.90;;;;;;10368776;28;19929;-79
2021/03/31 03:12:53;;;;;;;;;;;5.40;99.90;;;;;;10366234;28;19922;-79
2021/03/31 03:17:55;;;;;;;;;;;5.30;99.90;;;;;;10348521;28;19953;-79
2021/03/31 03:22:57;;;;;;;;;;;5.30;99.90;;;;;;10349107;28;19975;-79
2021/03/31 03:27:58;;;;;;;;;;;5.20;99.90;;;;;;10367288;28;19929;-79
2021/03/31 03:33:00;;;;;;;;;;;5.10;99.90;;;;;;10366201;28;20373;-79
2021/03/31 03:38:01;;;;;;;;;;;5.00;99.90;;;;;;10348457;28;19964;-79
2021/03/31 03:43:03;;;;;;;;;;;5.00;99.90;;;;;;10365933;28;19960;-79
2021/03/31 03:48:04;;;;;;;;;;;5.00;99.90;;;;;;10365363;28;20410;-78
2021/03/31 03:53:06;;;;;;;;;;;5.00;99.90;;;;;;10375371;28;19964;-78
2021/03/31 03:58:09;;;;;;;;;;;5.00;99.90;;;;;;10365478;28;20473;-78
2021/03/31 04:03:10;;;;;;;;;;;4.90;99.90;;;;;;10348246;28;19937;-79
2021/03/31 04:08:11;;;;;;;;;;;4.80;99.90;;;;;;10379860;28;20437;-79
2021/03/31 04:13:13;;;;;;;;;;;4.70;99.90;;;;;;10365330;28;19921;-79
2021/03/31 04:18:15;;;;;;;;;;;4.60;99.90;;;;;;10341931;28;19926;-79
2021/03/31 04:23:16;;;;;;;;;;;4.60;99.90;;;;;;10324253;28;20415;-79
2021/03/31 04:28:20;;;;;;;;;;;4.60;99.90;;;;;;10295268;28;20029;-79
2021/03/31 04:33:23;;;;;;;;;;;4.60;99.90;;;;;;10332004;28;19957;-79
2021/03/31 04:38:24;;;;;;;;;;;4.40;99.90;;;;;;10331859;28;19922;-79
2021/03/31 04:43:27;;;;;;;;;;;4.30;99.90;;;;;;10331669;28;20493;-79
2021/03/31 04:48:28;;;;;;;;;;;4.30;99.90;;;;;;10331504;28;19922;-79
2021/03/31 04:53:29;;;;;;;;;;;4.10;99.90;;;;;;10331250;28;19957;-79
2021/03/31 04:58:31;;;;;;;;;;;4.20;99.90;;;;;;10330870;28;20717;-79
2021/03/31 05:03:32;;;;;;;;;;;4.20;99.90;;;;;;10330778;28;20403;-79
2021/03/31 05:08:33;;;;;;;;;;;4.20;99.90;;;;;;10330403;28;19922;-79
2021/03/31 05:13:35;;;;;;;;;;;4.20;99.90;;;;;;10330640;28;20000;-79
2021/03/31 05:18:36;;;;;;;;;;;4.20;99.90;;;;;;10356020;28;20278;-79
2021/03/31 05:23:38;;;;;;;;;;;4.20;99.90;;;;;;10370410;28;19925;-79
2021/03/31 05:28:39;;;;;;;;;;;4.20;99.90;;;;;;10369986;28;20016;-79
2021/03/31 05:33:41;;;;;;;;;;;4.20;99.90;;;;;;10329783;28;19971;-79
2021/03/31 05:38:43;;;;;;;;;;;4.40;99.90;;;;;;10369621;28;20397;-79
2021/03/31 05:43:45;;;;;;;;;;;4.50;99.90;;;;;;10369977;28;19980;-79
2021/03/31 05:48:46;;;;;;;;;;;4.50;99.90;;;;;;10370586;28;19933;-79
2021/03/31 05:53:48;;;;;;;;;;;4.60;99.90;;;;;;10370333;28;20237;-79
2021/03/31 05:58:49;;;;;;;;;;;4.70;99.90;;;;;;10351782;28;19952;-79
2021/03/31 06:03:51;;;;;;;;;;;4.60;99.90;;;;;;10368316;28;19937;-79
2021/03/31 06:08:52;;;;;;;;;;;4.80;99.90;;;;;;10368888;28;20020;-79
2021/03/31 06:13:58;;;;;;;;;;;4.90;99.90;;;;;;10384398;28;19925;-79
2021/03/31 06:19:15;;;;;;;;;;;5.10;99.90;;;;;;10368522;28;19965;-79
2021/03/31 06:24:27;;;;;;;;;;;5.20;99.90;;;;;;10368312;28;19921;-79
2021/03/31 06:29:43;;;;;;;;;;;5.30;99.90;;;;;;10343139;28;20012;-79
2021/03/31 06:34:54;;;;;;;;;;;5.50;99.90;;;;;;10367662;28;19921;-79
2021/03/31 06:39:56;;;;;;;;;;;5.80;99.90;;;;;;10349963;28;19930;-79
2021/03/31 06:45:09;;;;;;;;;;;5.90;99.90;;;;;;10367554;28;19975;-79
2021/03/31 06:50:11;;;;;;;;;;;6.00;99.90;;;;;;10367136;28;20271;-79
2021/03/31 06:55:14;;;;;;;;;;;6.10;99.90;;;;;;10366951;28;19972;-78
2021/03/31 07:00:22;;;;;;;;;;;6.30;99.90;;;;;;10368327;28;20012;-78
2021/03/31 07:05:26;;;;;;;;;;;6.50;99.90;;;;;;10377858;28;19948;-78
2021/03/31 07:10:28;;;;;;;;;;;6.80;99.90;;;;;;10366598;28;20453;-78
2021/03/31 07:15:29;;;;;;;;;;;7.00;99.90;;;;;;10346876;28;19933;-79
2021/03/31 07:20:31;;;;;;;;;;;7.10;99.90;;;;;;10361186;28;20960;-79
2021/03/31 07:25:33;;;;;;;;;;;7.30;99.90;;;;;;10357655;28;19925;-78
2021/03/31 07:30:35;;;;;;;;;;;7.40;99.90;;;;;;10362626;28;20020;-79
2021/03/31 07:35:57;;;;;;;;;;;7.40;99.90;;;;;;10364636;28;19921;-79
2021/03/31 07:40:59;;;;;;;;;;;7.70;99.90;;;;;;10363951;28;19921;-78
2021/03/31 07:46:02;;;;;;;;;;;8.00;99.90;;;;;;10365672;28;19925;-78
2021/03/31 07:51:17;;;;;;;;;;;8.40;99.90;;;;;;10364943;28;19921;-78
2021/03/31 07:56:30;;;;;;;;;;;9.10;99.90;;;;;;10363981;28;19932;-78
2021/03/31 08:01:41;;;;;;;;;;;9.80;99.90;;;;;;10348050;28;19980;-78
2021/03/31 08:06:43;;;;;;;;;;;10.40;99.20;;;;;;10356281;28;19987;-78
2021/03/31 08:11:47;;;;;;;;;;;11.10;95.40;;;;;;10355969;28;19921;-78
2021/03/31 08:16:50;;;;;;;;;;;11.40;93.70;;;;;;10373345;28;19921;-78
2021/03/31 08:21:53;;;;;;;;;;;12.00;90.30;;;;;;10372576;28;20353;-78
2021/03/31 08:26:57;;;;;;;;;;;12.50;81.40;;;;;;10352877;28;19928;-78
2021/03/31 08:32:01;;;;;;;;;;;12.50;75.30;;;;;;10371350;28;19936;-78
2021/03/31 08:37:06;;;;;;;;;;;12.70;69.40;;;;;;10372096;28;19925;-78
2021/03/31 08:42:08;;;;;;;;;;;12.80;68.50;;;;;;10355257;28;19925;-77
2021/03/31 08:47:09;;;;;;;;;;;13.40;66.70;;;;;;10353970;28;19927;-78
2021/03/31 08:52:17;;;;;;;;;;;13.70;66.10;;;;;;10371502;28;20009;-79
2021/03/31 08:57:22;;;;;;;;;;;13.80;65.30;;;;;;10371815;28;19922;-78
2021/03/31 09:02:31;;;;;;;;;;;13.90;63.60;;;;;;10371017;28;20011;-78
2021/03/31 09:07:35;;;;;;;;;;;13.90;59.70;;;;;;10366723;28;20016;-78
2021/03/31 09:12:36;;;;;;;;;;;14.30;59.30;;;;;;10370197;28;19960;-78
2021/03/31 09:17:39;;;;;;;;;;;14.60;57.10;;;;;;10369814;28;19976;-78
2021/03/31 09:22:40;;;;;;;;;;;15.00;56.60;;;;;;10370449;28;19929;-78
2021/03/31 09:27:42;;;;;;;;;;;15.00;54.30;;;;;;10369671;28;19926;-78
2021/03/31 09:32:56;;;;;;;;;;;14.90;54.30;;;;;;10365836;28;19960;-78
2021/03/31 09:37:58;;;;;;;;;;;15.30;55.40;;;;;;10369539;28;20581;-78
2021/03/31 09:43:09;;;;;;;;;;;15.80;54.50;;;;;;10368746;28;19991;-78
2021/03/31 09:48:11;;;;;;;;;;;16.10;52.50;;;;;;10369725;28;19949;-86
2021/03/31 09:53:13;;;;;;;;;;;16.20;51.00;;;;;;10371874;28;19948;-86
2021/03/31 09:58:20;;;;;;;;;;;16.50;51.30;;;;;;10371421;28;19928;-87
2021/03/31 10:03:24;;;;;;;;;;;16.80;49.50;;;;;;10354844;28;19960;-87
2021/03/31 10:08:25;;;;;;;;;;;17.00;49.40;;;;;;10371933;28;19928;-87
2021/03/31 10:13:34;;;;;;;;;;;17.50;48.70;;;;;;10370731;28;20019;-87
2021/03/31 10:18:35;;;;;;;;;;;17.80;47.10;;;;;;10373945;28;19992;-87
2021/03/31 10:23:38;;;;;;;;;;;17.80;48.00;;;;;;10370891;28;20000;-87
2021/03/31 10:29:03;;;;;;;;;;;17.90;47.80;;;;;;10371281;28;20015;-87
2021/03/31 10:34:35;;;;;;;;;;;18.00;46.80;;;;;;10392654;28;20000;-86
2021/03/31 10:39:59;;;;;;;;;;;17.90;47.50;;;;;;10391404;28;19936;-86
2021/03/31 10:50:24;;;;;;;;;;;18.40;45.70;;;;;;10380479;28;20383;-86
2021/03/31 10:55:26;;;;;;;;;;;18.50;44.60;;;;;;10387458;28;19921;-87
2021/03/31 11:00:27;;;;;;;;;;;18.60;43.90;;;;;;10352234;28;20355;-87
2021/03/31 11:05:47;;;;;;;;;;;18.60;45.00;;;;;;10354404;28;19925;-86
2021/03/31 11:10:49;;;;;;;;;;;18.70;43.90;;;;;;10368750;28;20434;-86
2021/03/31 11:15:54;;;;;;;;;;;18.80;45.30;;;;;;10369250;28;19929;-86
2021/03/31 11:26:09;;;;;;;;;;;19.20;45.20;;;;;;10368797;28;19960;-87
2021/03/31 11:31:10;;;;;;;;;;;19.40;44.20;;;;;;10368572;28;19987;-86
2021/03/31 11:36:12;;;;;;;;;;;19.60;44.20;;;;;;10368194;28;20283;-87
2021/03/31 11:41:15;;;;;;;;;;;19.90;44.60;;;;;;10350612;28;19961;-86
2021/03/31 11:46:16;;;;;;;;;;;20.00;43.10;;;;;;10351068;28;19921;-86
2021/03/31 11:51:18;;;;;;;;;;;20.30;42.70;;;;;;10367523;28;19968;-86
2021/03/31 11:56:19;;;;;;;;;;;20.50;41.50;;;;;;10366373;28;20413;-86
2021/03/31 12:01:21;;;;;;;;;;;20.60;40.70;;;;;;10366861;28;20073;-86
2021/03/31 12:06:22;;;;;;;;;;;20.70;41.30;;;;;;10367408;28;19922;-86
2021/03/31 12:11:24;;;;;;;;;;;21.00;40.20;;;;;;10367545;28;20377;-86
2021/03/31 12:16:26;;;;;;;;;;;21.10;39.30;;;;;;10367888;28;20008;-86
2021/03/31 12:21:27;;;;;;;;;;;21.20;39.60;;;;;;10367639;28;19972;-87
2021/03/31 12:26:28;;;;;;;;;;;21.40;39.40;;;;;;10367418;28;19991;-87
2021/03/31 12:31:29;;;;;;;;;;;21.60;42.00;;;;;;10367788;28;20011;-87
2021/03/31 12:36:31;;;;;;;;;;;21.80;40.40;;;;;;10367656;28;19956;-86
2021/03/31 12:41:33;;;;;;;;;;;22.00;40.90;;;;;;10367753;28;19929;-87
2021/03/31 12:46:35;;;;;;;;;;;22.10;38.70;;;;;;10368226;28;20024;-87
2021/03/31 12:51:41;;;;;;;;;;;22.20;39.10;;;;;;10370433;28;19926;-87
2021/03/31 12:56:43;;;;;;;;;;;22.30;38.30;;;;;;10374624;28;19975;-86
2021/03/31 13:01:45;;;;;;;;;;;22.40;38.90;;;;;;10374317;28;19964;-86
2021/03/31 13:07:06;;;;;;;;;;;22.60;38.50;;;;;;10373395;28;20382;-86
2021/03/31 13:12:50;;;;;;;;;;;22.80;37.90;;;;;;10373278;28;19993;-86
2021/03/31 13:34:12;;;;;;;;;;;23.00;38.20;;;;;;10372668;28;20363;-87
2021/03/31 13:39:19;;;;;;;;;;;23.30;36.40;;;;;;10373045;28;19976;-87
2021/03/31 13:44:20;;;;;;;;;;;23.30;36.80;;;;;;10355830;28;19976;-87
2021/03/31 13:49:30;;;;;;;;;;;23.30;37.40;;;;;;10354838;28;19956;-87
2021/03/31 13:54:56;;;;;;;;;;;23.40;38.00;;;;;;10372172;28;20275;-87
2021/03/31 13:59:58;;;;;;;;;;;23.50;37.40;;;;;;10371452;28;19922;-86
2021/03/31 14:04:59;;;;;;;;;;;23.60;36.50;;;;;;10371151;28;19925;-86
2021/03/31 14:10:21;;;;;;;;;;;23.60;36.40;;;;;;10357044;28;19930;-87
2021/03/31 14:15:42;;;;;;;;;;;23.60;36.00;;;;;;10371382;28;19921;-86
2021/03/31 14:20:44;;;;;;;;;;;23.70;35.00;;;;;;10370845;28;19922;-86
2021/03/31 14:25:45;;;;;;;;;;;23.80;36.40;;;;;;10371611;28;20008;-87
2021/03/31 14:30:48;;;;;;;;;;;23.80;35.50;;;;;;10370553;28;19921;-87
2021/03/31 14:36:10;;;;;;;;;;;24.00;34.70;;;;;;10370344;28;20419;-87
2021/03/31 14:41:31;;;;;;;;;;;24.30;32.90;;;;;;10370845;28;19925;-87
2021/03/31 14:46:53;;;;;;;;;;;24.20;32.20;;;;;;10370244;28;19922;-87
2021/03/31 15:02:49;;;;;;;;;;;24.50;31.90;;;;;;10368639;28;20007;-87
2021/03/31 15:07:50;;;;;;;;;;;24.50;30.70;;;;;;10369093;28;19922;-86
2021/03/31 15:12:52;;;;;;;;;;;24.50;31.10;;;;;;10369186;28;19925;-87
2021/03/31 15:17:54;;;;;;;;;;;24.40;30.60;;;;;;10351130;28;19921;-87
2021/03/31 15:23:09;;;;;;;;;;;24.40;31.70;;;;;;10351805;28;19951;-86
2021/03/31 15:28:11;;;;;;;;;;;24.40;31.70;;;;;;10369045;28;19967;-86
2021/03/31 15:33:12;;;;;;;;;;;24.40;31.50;;;;;;10351477;28;19941;-87
2021/03/31 15:38:14;;;;;;;;;;;24.30;31.70;;;;;;10368506;28;20314;-87
2021/03/31 15:43:20;;;;;;;;;;;24.10;31.90;;;;;;10368789;28;20032;-87
2021/03/31 15:48:26;;;;;;;;;;;24.30;32.90;;;;;;10368605;28;20367;-87
2021/03/31 15:53:33;;;;;;;;;;;24.10;32.00;;;;;;10368640;28;20019;-87
2021/03/31 15:58:39;;;;;;;;;;;23.90;32.40;;;;;;10368332;28;19997;-87
2021/03/31 16:03:52;;;;;;;;;;;23.90;32.40;;;;;;10368022;28;20008;-87
2021/03/31 16:08:58;;;;;;;;;;;23.90;32.70;;;;;;10368047;28;20399;-86
2021/03/31 16:14:04;;;;;;;;;;;23.90;32.30;;;;;;10368137;28;19964;-87
2021/03/31 16:19:10;;;;;;;;;;;23.80;32.90;;;;;;10367438;28;20004;-87
2021/03/31 16:24:17;;;;;;;;;;;23.60;32.60;;;;;;10361463;28;19964;-86
2021/03/31 16:34:32;;;;;;;;;;;23.50;32.90;;;;;;10373729;28;20004;-86
2021/03/31 16:39:38;;;;;;;;;;;23.30;33.20;;;;;;10374489;28;20000;-87
2021/03/31 16:44:47;;;;;;;;;;;23.20;33.60;;;;;;10374254;28;20043;-86
2021/03/31 16:49:53;;;;;;;;;;;23.10;33.90;;;;;;10372902;28;20004;-86
2021/03/31 16:54:59;;;;;;;;;;;23.00;34.20;;;;;;10372767;28;19971;-86
2021/03/31 17:00:06;;;;;;;;;;;23.00;34.30;;;;;;10372756;28;20008;-86
2021/03/31 17:05:12;;;;;;;;;;;22.80;35.30;;;;;;10373459;28;19971;-87
2021/03/31 17:10:25;;;;;;;;;;;22.60;35.40;;;;;;10372503;28;19944;-86
2021/03/31 17:15:32;;;;;;;;;;;22.40;36.00;;;;;;10372352;28;20005;-85
2021/03/31 17:20:39;;;;;;;;;;;22.20;35.80;;;;;;10344097;28;19921;-86
2021/03/31 17:25:48;;;;;;;;;;;22.00;36.50;;;;;;10371249;28;19975;-86
2021/03/31 17:30:54;;;;;;;;;;;21.60;37.90;;;;;;10371873;28;20416;-86
2021/03/31 17:36:00;;;;;;;;;;;21.40;38.50;;;;;;10370681;28;19937;-86
2021/03/31 17:41:07;;;;;;;;;;;21.10;39.20;;;;;;10372638;28;20012;-86
2021/03/31 17:46:13;;;;;;;;;;;20.70;40.00;;;;;;10373189;28;19959;-86
2021/03/31 17:51:20;;;;;;;;;;;20.30;40.30;;;;;;10370714;28;20002;-86
2021/03/31 17:56:26;;;;;;;;;;;20.00;41.50;;;;;;10353447;28;20008;-86
2021/03/31 18:01:33;;;;;;;;;;;19.70;41.80;;;;;;10371723;28;20474;-87
2021/03/31 18:06:39;;;;;;;;;;;19.30;42.90;;;;;;10371761;28;20009;-87
2021/03/31 18:11:45;;;;;;;;;;;19.10;43.40;;;;;;10370769;28;20003;-87
2021/03/31 18:16:52;;;;;;;;;;;18.70;44.60;;;;;;10369906;28;20012;-87
2021/03/31 18:21:58;;;;;;;;;;;18.40;45.60;;;;;;10369995;28;20000;-87
2021/03/31 18:27:06;;;;;;;;;;;18.20;46.20;;;;;;10369371;28;20325;-87
2021/03/31 18:32:07;;;;;;;;;;;17.90;47.00;;;;;;10369533;28;19984;-87
2021/03/31 18:37:14;;;;;;;;;;;17.70;47.50;;;;;;10381733;28;19957;-87
2021/03/31 18:42:34;;;;;;;;;;;17.50;48.20;;;;;;10367760;28;20462;-86
2021/03/31 18:47:41;;;;;;;;;;;17.20;48.70;;;;;;10348544;28;19925;-86
2021/03/31 18:52:47;;;;;;;;;;;17.00;49.60;;;;;;10368755;28;20019;-87
2021/03/31 18:57:53;;;;;;;;;;;16.80;49.90;;;;;;10368631;28;20434;-87
2021/03/31 19:03:01;;;;;;;;;;;16.70;50.20;;;;;;10369073;28;19952;-87
2021/03/31 19:13:20;;;;;;;;;;;16.50;51.00;;;;;;10367996;28;20009;-87
2021/03/31 19:18:27;;;;;;;;;;;16.20;51.80;;;;;;10367088;28;20350;-87
2021/03/31 19:23:34;;;;;;;;;;;16.10;52.50;;;;;;10350315;28;20028;-86
2021/03/31 19:28:40;;;;;;;;;;;15.90;52.60;;;;;;10367860;28;19921;-86
2021/03/31 19:33:46;;;;;;;;;;;15.80;53.00;;;;;;10350809;28;20008;-86
2021/03/31 19:38:53;;;;;;;;;;;15.60;53.50;;;;;;10368165;28;20004;-87
2021/03/31 19:44:01;;;;;;;;;;;15.40;53.90;;;;;;10368036;28;20012;-87
2021/03/31 19:49:07;;;;;;;;;;;15.30;54.20;;;;;;10367021;28;20000;-86
2021/03/31 19:54:13;;;;;;;;;;;15.10;54.80;;;;;;10349140;28;20012;-87
2021/03/31 19:59:20;;;;;;;;;;;14.90;55.40;;;;;;10352914;28;20646;-87
2021/03/31 20:04:26;;;;;;;;;;;14.70;56.20;;;;;;10376268;28;20004;-87
2021/03/31 20:09:32;;;;;;;;;;;14.50;56.90;;;;;;10390356;28;20004;-87
2021/03/31 20:14:38;;;;;;;;;;;14.40;57.70;;;;;;10376643;28;19953;-87
2021/03/31 20:19:45;;;;;;;;;;;14.20;58.40;;;;;;10375099;28;20012;-86
2021/03/31 20:24:51;;;;;;;;;;;14.10;59.10;;;;;;10355712;28;20000;-87
2021/03/31 20:29:58;;;;;;;;;;;13.90;60.20;;;;;;10376274;28;20000;-87
2021/03/31 20:35:06;;;;;;;;;;;13.80;61.30;;;;;;10375454;28;20007;-86
2021/03/31 20:40:12;;;;;;;;;;;13.70;62.60;;;;;;10375499;28;20012;-87
2021/03/31 20:45:19;;;;;;;;;;;13.60;64.50;;;;;;10374230;28;20593;-86
2021/03/31 20:50:25;;;;;;;;;;;13.50;64.70;;;;;;10375602;28;20009;-87
2021/03/31 20:55:32;;;;;;;;;;;13.40;67.80;;;;;;10358617;28;20114;-87
2021/03/31 21:00:38;;;;;;;;;;;13.40;70.40;;;;;;10373942;28;20012;-88
2021/03/31 21:05:44;;;;;;;;;;;13.40;72.10;;;;;;10360258;28;20439;-91
2021/03/31 21:10:50;;;;;;;;;;;13.30;72.90;;;;;;10375150;28;20012;-90
2021/03/31 21:15:57;;;;;;;;;;;13.10;75.50;;;;;;10376777;28;19928;-91
2021/03/31 21:21:03;;;;;;;;;;;12.90;78.90;;;;;;10376722;28;20336;-91
2021/03/31 21:26:09;;;;;;;;;;;12.80;83.70;;;;;;10375916;28;20437;-90
2021/03/31 21:31:15;;;;;;;;;;;12.70;86.30;;;;;;10358885;28;19996;-90
2021/03/31 21:36:37;;;;;;;;;;;12.50;90.90;;;;;;10376525;28;19964;-91
2021/03/31 21:47:31;;;;;;;;;;;12.50;94.10;;;;;;10377456;28;20000;-91
2021/03/31 21:52:33;;;;;;;;;;;12.40;95.30;;;;;;10377547;28;19928;-90
2021/03/31 21:57:58;;;;;;;;;;;12.20;97.00;;;;;;10376391;28;19927;-90
2021/03/31 22:03:00;;;;;;;;;;;12.20;98.00;;;;;;10356838;28;19929;-90
2021/03/31 22:08:01;;;;;;;;;;;12.00;99.70;;;;;;10368844;28;20430;-90
2021/03/31 22:13:17;;;;;;;;;;;12.00;99.90;;;;;;10375082;28;19929;-90
2021/03/31 22:18:21;;;;;;;;;;;11.80;99.90;;;;;;10339303;28;19922;-90
2021/03/31 22:23:23;;;;;;;;;;;11.60;99.90;;;;;;10367977;28;20290;-90
2021/03/31 22:28:25;;;;;;;;;;;11.70;99.90;;;;;;10373747;28;19925;-90
2021/03/31 22:33:27;;;;;;;;;;;11.50;99.90;;;;;;10375567;28;19922;-91
2021/03/31 22:38:29;;;;;;;;;;;11.40;99.90;;;;;;10376155;28;19943;-91
2021/03/31 22:43:31;;;;;;;;;;;11.20;99.90;;;;;;10376245;28;19921;-91
2021/03/31 22:48:32;;;;;;;;;;;11.20;99.90;;;;;;10375070;28;20310;-91
2021/03/31 22:53:46;;;;;;;;;;;11.10;99.90;;;;;;10375158;28;19921;-91
2021/03/31 22:58:49;;;;;;;;;;;11.00;99.90;;;;;;10374688;28;20390;-89
2021/03/31 23:03:51;;;;;;;;;;;11.00;99.90;;;;;;10371314;28;19925;-91
2021/03/31 23:08:53;;;;;;;;;;;10.90;99.90;;;;;;10369232;28;19933;-90
2021/03/31 23:13:57;;;;;;;;;;;10.90;99.90;;;;;;10371162;28;19921;-90
2021/03/31 23:18:59;;;;;;;;;;;10.80;99.90;;;;;;10370529;28;19960;-90
2021/03/31 23:24:02;;;;;;;;;;;10.70;99.90;;;;;;10371072;28;19925;-90
2021/03/31 23:29:04;;;;;;;;;;;10.60;99.90;;;;;;10370022;28;20497;-90
2021/03/31 23:34:05;;;;;;;;;;;10.50;99.90;;;;;;10369114;28;19964;-90
2021/03/31 23:39:07;;;;;;;;;;;10.40;99.90;;;;;;10370175;28;19927;-89
2021/03/31 23:44:08;;;;;;;;;;;10.20;99.90;;;;;;10369757;28;19925;-90
2021/03/31 23:49:09;;;;;;;;;;;10.20;99.90;;;;;;10351496;28;19921;-90
2021/03/31 23:54:11;;;;;;;;;;;10.20;99.90;;;;;;10368755;28;20330;-90
2021/03/31 23:59:12;;;;;;;;;;;10.00;99.90;;;;;;10353007;28;19929;-91
